sensor_id;sensor_type;location;lat;lon;timestamp;P1;durP1;ratioP1;P2;durP2;ratioP2
72464;SDS011;60471;52.150;4.508;2022-09-12T00:01:14;26.60;;;17.85;;
72464;SDS011;60471;52.150;4.508;2022-09-12T00:03:44;28.10;;;19.83;;
72464;SDS011;60471;52.150;4.508;2022-09-12T00:06:17;29.02;;;18.80;;
72464;SDS011;60471;52.150;4.508;2022-09-12T00:08:48;24.58;;;17.23;;
72464;SDS011;60471;52.150;4.508;2022-09-12T00:11:14;29.45;;;19.30;;
72464;SDS011;60471;52.150;4.508;2022-09-12T00:13:41;27.55;;;19.23;;
72464;SDS011;60471;52.150;4.508;2022-09-12T00:16:15;28.33;;;19.65;;
72464;SDS011;60471;52.150;4.508;2022-09-12T00:18:46;28.02;;;18.65;;
72464;SDS011;60471;52.150;4.508;2022-09-12T00:21:13;30.02;;;18.98;;
72464;SDS011;60471;52.150;4.508;2022-09-12T00:23:41;27.17;;;18.83;;
72464;SDS011;60471;52.150;4.508;2022-09-12T00:26:09;35.15;;;19.65;;
72464;SDS011;60471;52.150;4.508;2022-09-12T00:28:36;27.52;;;18.42;;
72464;SDS011;60471;52.150;4.508;2022-09-12T00:31:08;28.98;;;18.55;;
72464;SDS011;60471;52.150;4.508;2022-09-12T00:33:37;27.00;;;19.25;;
72464;SDS011;60471;52.150;4.508;2022-09-12T00:36:05;27.45;;;18.83;;
72464;SDS011;60471;52.150;4.508;2022-09-12T00:38:41;26.73;;;17.25;;
72464;SDS011;60471;52.150;4.508;2022-09-12T00:41:17;26.80;;;16.63;;
72464;SDS011;60471;52.150;4.508;2022-09-12T00:52:41;28.83;;;17.92;;
72464;SDS011;60471;52.150;4.508;2022-09-12T00:55:21;25.60;;;17.67;;
72464;SDS011;60471;52.150;4.508;2022-09-12T00:57:59;26.88;;;19.20;;
72464;SDS011;60471;52.150;4.508;2022-09-12T01:00:33;25.42;;;17.52;;
72464;SDS011;60471;52.150;4.508;2022-09-12T01:03:01;29.38;;;18.20;;
72464;SDS011;60471;52.150;4.508;2022-09-12T01:05:34;25.75;;;17.00;;
72464;SDS011;60471;52.150;4.508;2022-09-12T01:08:09;24.95;;;17.08;;
72464;SDS011;60471;52.150;4.508;2022-09-12T01:10:36;26.83;;;18.85;;
72464;SDS011;60471;52.150;4.508;2022-09-12T01:13:06;27.23;;;19.00;;
72464;SDS011;60471;52.150;4.508;2022-09-12T01:15:37;29.85;;;19.48;;
72464;SDS011;60471;52.150;4.508;2022-09-12T01:35:37;28.55;;;19.35;;
72464;SDS011;60471;52.150;4.508;2022-09-12T01:38:24;29.08;;;19.33;;
72464;SDS011;60471;52.150;4.508;2022-09-12T01:43:59;28.05;;;17.23;;
72464;SDS011;60471;52.150;4.508;2022-09-12T01:46:53;28.45;;;18.52;;
72464;SDS011;60471;52.150;4.508;2022-09-12T01:49:29;27.73;;;17.33;;
72464;SDS011;60471;52.150;4.508;2022-09-12T01:52:21;33.72;;;16.90;;
72464;SDS011;60471;52.150;4.508;2022-09-12T01:55:13;27.63;;;18.00;;
72464;SDS011;60471;52.150;4.508;2022-09-12T02:00:57;27.98;;;17.08;;
72464;SDS011;60471;52.150;4.508;2022-09-12T02:03:38;27.63;;;17.25;;
72464;SDS011;60471;52.150;4.508;2022-09-12T02:06:19;26.05;;;17.50;;
72464;SDS011;60471;52.150;4.508;2022-09-12T02:08:57;25.75;;;17.30;;
72464;SDS011;60471;52.150;4.508;2022-09-12T02:11:45;26.30;;;17.73;;
72464;SDS011;60471;52.150;4.508;2022-09-12T02:14:19;27.33;;;18.33;;
72464;SDS011;60471;52.150;4.508;2022-09-12T02:17:11;27.48;;;17.80;;
72464;SDS011;60471;52.150;4.508;2022-09-12T02:19:44;30.95;;;18.75;;
72464;SDS011;60471;52.150;4.508;2022-09-12T02:22:19;27.67;;;19.25;;
72464;SDS011;60471;52.150;4.508;2022-09-12T02:24:51;27.33;;;17.98;;
72464;SDS011;60471;52.150;4.508;2022-09-12T02:27:25;28.30;;;18.15;;
72464;SDS011;60471;52.150;4.508;2022-09-12T02:30:06;31.60;;;19.15;;
72464;SDS011;60471;52.150;4.508;2022-09-12T02:38:09;27.00;;;16.98;;
72464;SDS011;60471;52.150;4.508;2022-09-12T02:41:09;29.38;;;17.00;;
72464;SDS011;60471;52.150;4.508;2022-09-12T02:43:38;28.05;;;17.20;;
72464;SDS011;60471;52.150;4.508;2022-09-12T02:46:09;28.50;;;17.33;;
72464;SDS011;60471;52.150;4.508;2022-09-12T02:48:51;26.98;;;17.00;;
72464;SDS011;60471;52.150;4.508;2022-09-12T02:51:19;23.30;;;16.08;;
72464;SDS011;60471;52.150;4.508;2022-09-12T02:53:46;26.13;;;17.60;;
72464;SDS011;60471;52.150;4.508;2022-09-12T02:56:17;27.20;;;16.85;;
72464;SDS011;60471;52.150;4.508;2022-09-12T02:58:53;28.50;;;15.65;;
72464;SDS011;60471;52.150;4.508;2022-09-12T03:10:27;23.83;;;16.02;;
72464;SDS011;60471;52.150;4.508;2022-09-12T03:21:46;26.77;;;15.60;;
72464;SDS011;60471;52.150;4.508;2022-09-12T03:24:29;30.13;;;17.40;;
72464;SDS011;60471;52.150;4.508;2022-09-12T03:27:10;28.23;;;17.83;;
72464;SDS011;60471;52.150;4.508;2022-09-12T03:29:51;26.75;;;17.52;;
72464;SDS011;60471;52.150;4.508;2022-09-12T03:32:35;28.35;;;16.80;;
72464;SDS011;60471;52.150;4.508;2022-09-12T03:35:10;27.02;;;17.92;;
72464;SDS011;60471;52.150;4.508;2022-09-12T03:37:38;28.63;;;18.40;;
72464;SDS011;60471;52.150;4.508;2022-09-12T03:40:05;27.15;;;17.73;;
72464;SDS011;60471;52.150;4.508;2022-09-12T03:42:34;24.90;;;16.17;;
72464;SDS011;60471;52.150;4.508;2022-09-12T03:45:00;26.42;;;18.10;;
72464;SDS011;60471;52.150;4.508;2022-09-12T03:47:26;29.73;;;17.52;;
72464;SDS011;60471;52.150;4.508;2022-09-12T03:49:52;28.77;;;17.58;;
72464;SDS011;60471;52.150;4.508;2022-09-12T03:52:19;30.52;;;18.88;;
72464;SDS011;60471;52.150;4.508;2022-09-12T03:54:45;32.38;;;18.05;;
72464;SDS011;60471;52.150;4.508;2022-09-12T03:57:11;28.75;;;18.27;;
72464;SDS011;60471;52.150;4.508;2022-09-12T03:59:37;28.50;;;17.80;;
72464;SDS011;60471;52.150;4.508;2022-09-12T04:02:03;28.60;;;18.20;;
72464;SDS011;60471;52.150;4.508;2022-09-12T04:04:30;31.10;;;18.20;;
72464;SDS011;60471;52.150;4.508;2022-09-12T04:06:57;30.80;;;19.00;;
72464;SDS011;60471;52.150;4.508;2022-09-12T04:09:23;28.25;;;18.13;;
72464;SDS011;60471;52.150;4.508;2022-09-12T04:11:49;27.05;;;17.70;;
72464;SDS011;60471;52.150;4.508;2022-09-12T04:14:15;28.52;;;17.65;;
72464;SDS011;60471;52.150;4.508;2022-09-12T04:16:42;31.45;;;19.25;;
72464;SDS011;60471;52.150;4.508;2022-09-12T04:19:09;33.25;;;19.50;;
72464;SDS011;60471;52.150;4.508;2022-09-12T04:21:36;35.67;;;18.58;;
72464;SDS011;60471;52.150;4.508;2022-09-12T04:24:04;31.15;;;18.88;;
72464;SDS011;60471;52.150;4.508;2022-09-12T04:26:30;30.38;;;18.77;;
72464;SDS011;60471;52.150;4.508;2022-09-12T04:28:57;31.48;;;20.48;;
72464;SDS011;60471;52.150;4.508;2022-09-12T04:31:23;28.17;;;19.42;;
72464;SDS011;60471;52.150;4.508;2022-09-12T04:33:58;28.55;;;19.40;;
72464;SDS011;60471;52.150;4.508;2022-09-12T04:36:26;31.02;;;19.08;;
72464;SDS011;60471;52.150;4.508;2022-09-12T04:38:54;31.67;;;18.92;;
72464;SDS011;60471;52.150;4.508;2022-09-12T04:41:24;30.77;;;19.70;;
72464;SDS011;60471;52.150;4.508;2022-09-12T04:43:58;32.55;;;20.88;;
72464;SDS011;60471;52.150;4.508;2022-09-12T04:46:31;33.33;;;20.75;;
72464;SDS011;60471;52.150;4.508;2022-09-12T04:49:04;33.60;;;20.70;;
72464;SDS011;60471;52.150;4.508;2022-09-12T04:51:31;34.20;;;19.48;;
72464;SDS011;60471;52.150;4.508;2022-09-12T04:54:08;32.72;;;20.83;;
72464;SDS011;60471;52.150;4.508;2022-09-12T04:56:40;32.08;;;20.42;;
72464;SDS011;60471;52.150;4.508;2022-09-12T04:59:09;30.73;;;18.75;;
72464;SDS011;60471;52.150;4.508;2022-09-12T05:01:40;31.48;;;21.05;;
72464;SDS011;60471;52.150;4.508;2022-09-12T05:04:08;32.45;;;21.67;;
72464;SDS011;60471;52.150;4.508;2022-09-12T05:06:36;34.53;;;20.60;;
72464;SDS011;60471;52.150;4.508;2022-09-12T05:09:04;32.72;;;21.40;;
72464;SDS011;60471;52.150;4.508;2022-09-12T05:11:33;36.03;;;21.95;;
72464;SDS011;60471;52.150;4.508;2022-09-12T05:14:02;34.45;;;21.25;;
72464;SDS011;60471;52.150;4.508;2022-09-12T05:16:29;34.88;;;20.48;;
72464;SDS011;60471;52.150;4.508;2022-09-12T05:18:57;33.75;;;20.75;;
72464;SDS011;60471;52.150;4.508;2022-09-12T05:21:24;32.75;;;20.90;;
72464;SDS011;60471;52.150;4.508;2022-09-12T05:23:52;36.08;;;21.65;;
72464;SDS011;60471;52.150;4.508;2022-09-12T05:26:21;33.55;;;20.42;;
72464;SDS011;60471;52.150;4.508;2022-09-12T05:28:49;34.08;;;21.25;;
72464;SDS011;60471;52.150;4.508;2022-09-12T05:31:19;33.03;;;20.73;;
72464;SDS011;60471;52.150;4.508;2022-09-12T05:33:50;34.28;;;21.98;;
72464;SDS011;60471;52.150;4.508;2022-09-12T05:36:26;38.10;;;22.00;;
72464;SDS011;60471;52.150;4.508;2022-09-12T05:38:54;35.42;;;21.05;;
72464;SDS011;60471;52.150;4.508;2022-09-12T05:41:22;36.97;;;21.80;;
72464;SDS011;60471;52.150;4.508;2022-09-12T05:43:52;35.58;;;21.77;;
72464;SDS011;60471;52.150;4.508;2022-09-12T05:46:22;39.60;;;22.80;;
72464;SDS011;60471;52.150;4.508;2022-09-12T05:48:50;36.25;;;21.35;;
72464;SDS011;60471;52.150;4.508;2022-09-12T05:51:20;36.47;;;21.95;;
72464;SDS011;60471;52.150;4.508;2022-09-12T05:53:54;37.05;;;21.20;;
72464;SDS011;60471;52.150;4.508;2022-09-12T05:56:23;44.25;;;24.25;;
72464;SDS011;60471;52.150;4.508;2022-09-12T05:58:54;34.72;;;20.73;;
72464;SDS011;60471;52.150;4.508;2022-09-12T06:01:23;36.92;;;21.92;;
72464;SDS011;60471;52.150;4.508;2022-09-12T06:03:52;34.92;;;21.70;;
72464;SDS011;60471;52.150;4.508;2022-09-12T06:06:23;36.00;;;21.40;;
72464;SDS011;60471;52.150;4.508;2022-09-12T06:08:51;38.20;;;21.08;;
72464;SDS011;60471;52.150;4.508;2022-09-12T06:11:22;37.03;;;22.58;;
72464;SDS011;60471;52.150;4.508;2022-09-12T06:13:51;36.70;;;23.00;;
72464;SDS011;60471;52.150;4.508;2022-09-12T06:16:19;37.40;;;20.75;;
72464;SDS011;60471;52.150;4.508;2022-09-12T06:18:48;38.10;;;22.05;;
72464;SDS011;60471;52.150;4.508;2022-09-12T06:21:18;37.95;;;23.17;;
72464;SDS011;60471;52.150;4.508;2022-09-12T06:23:46;39.15;;;22.70;;
72464;SDS011;60471;52.150;4.508;2022-09-12T06:26:14;38.88;;;23.73;;
72464;SDS011;60471;52.150;4.508;2022-09-12T06:28:43;37.85;;;22.02;;
72464;SDS011;60471;52.150;4.508;2022-09-12T06:31:13;35.30;;;21.02;;
72464;SDS011;60471;52.150;4.508;2022-09-12T06:36:21;34.88;;;20.60;;
72464;SDS011;60471;52.150;4.508;2022-09-12T06:38:59;36.05;;;21.80;;
72464;SDS011;60471;52.150;4.508;2022-09-12T06:41:29;38.70;;;22.40;;
72464;SDS011;60471;52.150;4.508;2022-09-12T06:43:57;34.05;;;21.27;;
72464;SDS011;60471;52.150;4.508;2022-09-12T06:46:25;37.13;;;23.35;;
72464;SDS011;60471;52.150;4.508;2022-09-12T06:48:54;36.72;;;22.90;;
72464;SDS011;60471;52.150;4.508;2022-09-12T06:51:21;37.45;;;22.02;;
72464;SDS011;60471;52.150;4.508;2022-09-12T06:53:49;37.60;;;22.90;;
72464;SDS011;60471;52.150;4.508;2022-09-12T06:56:16;35.78;;;22.52;;
72464;SDS011;60471;52.150;4.508;2022-09-12T06:58:46;51.25;;;32.92;;
72464;SDS011;60471;52.150;4.508;2022-09-12T07:01:24;38.03;;;23.23;;
72464;SDS011;60471;52.150;4.508;2022-09-12T07:03:54;43.08;;;25.00;;
72464;SDS011;60471;52.150;4.508;2022-09-12T07:06:26;37.85;;;22.73;;
72464;SDS011;60471;52.150;4.508;2022-09-12T07:08:56;39.60;;;23.90;;
72464;SDS011;60471;52.150;4.508;2022-09-12T07:11:26;35.38;;;23.35;;
72464;SDS011;60471;52.150;4.508;2022-09-12T07:13:57;36.20;;;22.48;;
72464;SDS011;60471;52.150;4.508;2022-09-12T07:16:25;35.58;;;22.58;;
72464;SDS011;60471;52.150;4.508;2022-09-12T07:18:52;39.50;;;23.63;;
72464;SDS011;60471;52.150;4.508;2022-09-12T07:23:50;37.38;;;21.45;;
72464;SDS011;60471;52.150;4.508;2022-09-12T07:26:26;37.28;;;22.83;;
72464;SDS011;60471;52.150;4.508;2022-09-12T07:28:54;36.20;;;21.55;;
72464;SDS011;60471;52.150;4.508;2022-09-12T07:31:23;33.33;;;20.45;;
72464;SDS011;60471;52.150;4.508;2022-09-12T07:33:51;32.97;;;22.73;;
72464;SDS011;60471;52.150;4.508;2022-09-12T07:36:19;38.35;;;22.65;;
72464;SDS011;60471;52.150;4.508;2022-09-12T07:38:52;34.67;;;22.63;;
72464;SDS011;60471;52.150;4.508;2022-09-12T07:41:23;34.22;;;22.40;;
72464;SDS011;60471;52.150;4.508;2022-09-12T07:43:54;40.28;;;23.73;;
72464;SDS011;60471;52.150;4.508;2022-09-12T07:46:23;35.45;;;20.05;;
72464;SDS011;60471;52.150;4.508;2022-09-12T07:48:52;37.30;;;22.48;;
72464;SDS011;60471;52.150;4.508;2022-09-12T07:51:20;31.15;;;19.30;;
72464;SDS011;60471;52.150;4.508;2022-09-12T07:53:48;29.92;;;19.52;;
72464;SDS011;60471;52.150;4.508;2022-09-12T07:56:15;32.88;;;20.98;;
72464;SDS011;60471;52.150;4.508;2022-09-12T07:58:43;36.63;;;19.58;;
72464;SDS011;60471;52.150;4.508;2022-09-12T08:01:10;32.22;;;21.05;;
72464;SDS011;60471;52.150;4.508;2022-09-12T08:03:45;29.02;;;17.70;;
72464;SDS011;60471;52.150;4.508;2022-09-12T08:06:15;30.63;;;19.17;;
72464;SDS011;60471;52.150;4.508;2022-09-12T08:08:49;29.48;;;18.05;;
72464;SDS011;60471;52.150;4.508;2022-09-12T08:11:18;27.88;;;17.55;;
72464;SDS011;60471;52.150;4.508;2022-09-12T08:13:47;27.88;;;17.38;;
72464;SDS011;60471;52.150;4.508;2022-09-12T08:16:16;29.45;;;16.35;;
72464;SDS011;60471;52.150;4.508;2022-09-12T08:18:46;28.48;;;15.85;;
72464;SDS011;60471;52.150;4.508;2022-09-12T08:21:14;27.23;;;16.63;;
72464;SDS011;60471;52.150;4.508;2022-09-12T08:23:53;28.10;;;18.15;;
72464;SDS011;60471;52.150;4.508;2022-09-12T08:26:32;30.63;;;18.23;;
72464;SDS011;60471;52.150;4.508;2022-09-12T08:28:59;24.92;;;15.75;;
72464;SDS011;60471;52.150;4.508;2022-09-12T08:31:26;25.70;;;16.23;;
72464;SDS011;60471;52.150;4.508;2022-09-12T08:33:56;20.27;;;14.00;;
72464;SDS011;60471;52.150;4.508;2022-09-12T08:36:24;24.63;;;15.40;;
72464;SDS011;60471;52.150;4.508;2022-09-12T08:38:55;22.55;;;13.50;;
72464;SDS011;60471;52.150;4.508;2022-09-12T08:49:53;17.67;;;10.20;;
72464;SDS011;60471;52.150;4.508;2022-09-12T08:55:44;17.02;;;9.25;;
72464;SDS011;60471;52.150;4.508;2022-09-12T08:58:20;18.73;;;10.43;;
72464;SDS011;60471;52.150;4.508;2022-09-12T09:12:37;16.15;;;8.35;;
72464;SDS011;60471;52.150;4.508;2022-09-12T09:18:28;15.38;;;8.50;;
72464;SDS011;60471;52.150;4.508;2022-09-12T09:21:04;14.60;;;8.77;;
72464;SDS011;60471;52.150;4.508;2022-09-12T09:24:03;14.30;;;8.05;;
72464;SDS011;60471;52.150;4.508;2022-09-12T09:29:15;18.05;;;8.75;;
72464;SDS011;60471;52.150;4.508;2022-09-12T09:31:48;16.00;;;8.07;;
72464;SDS011;60471;52.150;4.508;2022-09-12T09:34:20;12.88;;;7.05;;
72464;SDS011;60471;52.150;4.508;2022-09-12T09:37:05;17.70;;;8.15;;
72464;SDS011;60471;52.150;4.508;2022-09-12T09:40:00;12.88;;;6.80;;
72464;SDS011;60471;52.150;4.508;2022-09-12T09:45:20;12.73;;;6.53;;
72464;SDS011;60471;52.150;4.508;2022-09-12T09:48:00;11.95;;;6.10;;
72464;SDS011;60471;52.150;4.508;2022-09-12T09:50:40;13.80;;;5.15;;
72464;SDS011;60471;52.150;4.508;2022-09-12T09:53:42;11.20;;;5.07;;
72464;SDS011;60471;52.150;4.508;2022-09-12T09:56:29;10.40;;;5.53;;
72464;SDS011;60471;52.150;4.508;2022-09-12T10:01:46;12.88;;;5.95;;
72464;SDS011;60471;52.150;4.508;2022-09-12T10:06:58;10.25;;;4.57;;
72464;SDS011;60471;52.150;4.508;2022-09-12T10:09:28;12.23;;;5.78;;
72464;SDS011;60471;52.150;4.508;2022-09-12T10:12:00;13.30;;;5.72;;
72464;SDS011;60471;52.150;4.508;2022-09-12T10:14:57;11.82;;;5.78;;
72464;SDS011;60471;52.150;4.508;2022-09-12T10:17:44;11.80;;;5.28;;
72464;SDS011;60471;52.150;4.508;2022-09-12T10:22:59;11.77;;;4.00;;
72464;SDS011;60471;52.150;4.508;2022-09-12T10:25:52;9.82;;;4.32;;
72464;SDS011;60471;52.150;4.508;2022-09-12T10:28:35;10.18;;;4.38;;
72464;SDS011;60471;52.150;4.508;2022-09-12T10:31:15;10.52;;;4.82;;
72464;SDS011;60471;52.150;4.508;2022-09-12T10:33:54;9.57;;;4.55;;
72464;SDS011;60471;52.150;4.508;2022-09-12T10:36:24;10.43;;;4.60;;
72464;SDS011;60471;52.150;4.508;2022-09-12T10:39:02;19.55;;;11.18;;
72464;SDS011;60471;52.150;4.508;2022-09-12T10:41:35;14.02;;;5.35;;
72464;SDS011;60471;52.150;4.508;2022-09-12T10:44:13;10.85;;;4.82;;
72464;SDS011;60471;52.150;4.508;2022-09-12T10:46:43;12.15;;;5.13;;
72464;SDS011;60471;52.150;4.508;2022-09-12T10:49:18;9.63;;;4.13;;
72464;SDS011;60471;52.150;4.508;2022-09-12T10:54:52;9.50;;;4.38;;
72464;SDS011;60471;52.150;4.508;2022-09-12T11:00:13;10.07;;;3.90;;
72464;SDS011;60471;52.150;4.508;2022-09-12T11:05:58;9.02;;;3.40;;
72464;SDS011;60471;52.150;4.508;2022-09-12T11:08:45;8.88;;;3.33;;
72464;SDS011;60471;52.150;4.508;2022-09-12T11:11:32;8.75;;;3.08;;
72464;SDS011;60471;52.150;4.508;2022-09-12T11:14:09;15.35;;;4.18;;
72464;SDS011;60471;52.150;4.508;2022-09-12T11:16:56;8.40;;;2.97;;
72464;SDS011;60471;52.150;4.508;2022-09-12T11:23:37;10.52;;;3.88;;
72464;SDS011;60471;52.150;4.508;2022-09-12T11:26:27;9.85;;;3.67;;
72464;SDS011;60471;52.150;4.508;2022-09-12T11:32:17;11.45;;;3.60;;
72464;SDS011;60471;52.150;4.508;2022-09-12T11:35:18;10.55;;;4.20;;
72464;SDS011;60471;52.150;4.508;2022-09-12T11:40:49;13.90;;;4.80;;
72464;SDS011;60471;52.150;4.508;2022-09-12T11:46:18;13.52;;;5.20;;
72464;SDS011;60471;52.150;4.508;2022-09-12T12:05:33;10.73;;;3.20;;
72464;SDS011;60471;52.150;4.508;2022-09-12T12:08:05;8.23;;;2.90;;
72464;SDS011;60471;52.150;4.508;2022-09-12T12:10:43;6.88;;;2.47;;
72464;SDS011;60471;52.150;4.508;2022-09-12T12:16:06;9.18;;;2.92;;
72464;SDS011;60471;52.150;4.508;2022-09-12T12:18:37;9.00;;;2.67;;
72464;SDS011;60471;52.150;4.508;2022-09-12T12:21:17;9.15;;;2.85;;
72464;SDS011;60471;52.150;4.508;2022-09-12T12:24:23;8.93;;;2.80;;
72464;SDS011;60471;52.150;4.508;2022-09-12T12:29:47;8.93;;;3.33;;
72464;SDS011;60471;52.150;4.508;2022-09-12T12:34:44;7.57;;;2.63;;
72464;SDS011;60471;52.150;4.508;2022-09-12T12:47:43;7.75;;;2.78;;
72464;SDS011;60471;52.150;4.508;2022-09-12T12:50:25;8.05;;;2.72;;
72464;SDS011;60471;52.150;4.508;2022-09-12T12:52:56;7.35;;;2.60;;
72464;SDS011;60471;52.150;4.508;2022-09-12T12:55:27;7.88;;;2.80;;
72464;SDS011;60471;52.150;4.508;2022-09-12T12:58:04;8.57;;;2.53;;
72464;SDS011;60471;52.150;4.508;2022-09-12T13:01:03;7.63;;;2.50;;
72464;SDS011;60471;52.150;4.508;2022-09-12T13:03:42;6.18;;;2.25;;
72464;SDS011;60471;52.150;4.508;2022-09-12T13:09:54;7.47;;;2.20;;
72464;SDS011;60471;52.150;4.508;2022-09-12T13:12:35;8.75;;;3.10;;
72464;SDS011;60471;52.150;4.508;2022-09-12T13:18:05;8.25;;;2.10;;
72464;SDS011;60471;52.150;4.508;2022-09-12T13:20:42;8.13;;;2.75;;
72464;SDS011;60471;52.150;4.508;2022-09-12T13:23:23;6.80;;;2.13;;
72464;SDS011;60471;52.150;4.508;2022-09-12T13:25:56;8.18;;;2.05;;
72464;SDS011;60471;52.150;4.508;2022-09-12T13:28:25;6.50;;;2.50;;
72464;SDS011;60471;52.150;4.508;2022-09-12T13:36:48;8.88;;;2.20;;
72464;SDS011;60471;52.150;4.508;2022-09-12T13:43:05;9.18;;;2.30;;
72464;SDS011;60471;52.150;4.508;2022-09-12T13:45:37;10.23;;;2.20;;
72464;SDS011;60471;52.150;4.508;2022-09-12T13:48:04;8.55;;;1.75;;
72464;SDS011;60471;52.150;4.508;2022-09-12T13:50:42;7.03;;;2.15;;
72464;SDS011;60471;52.150;4.508;2022-09-12T13:53:21;8.93;;;2.17;;
72464;SDS011;60471;52.150;4.508;2022-09-12T13:55:52;7.38;;;1.98;;
72464;SDS011;60471;52.150;4.508;2022-09-12T13:58:28;8.98;;;2.40;;
72464;SDS011;60471;52.150;4.508;2022-09-12T14:01:09;8.18;;;2.17;;
72464;SDS011;60471;52.150;4.508;2022-09-12T14:03:52;7.97;;;2.10;;
72464;SDS011;60471;52.150;4.508;2022-09-12T14:06:46;12.05;;;2.05;;
72464;SDS011;60471;52.150;4.508;2022-09-12T14:09:23;6.22;;;1.90;;
72464;SDS011;60471;52.150;4.508;2022-09-12T14:11:54;8.00;;;2.45;;
72464;SDS011;60471;52.150;4.508;2022-09-12T14:14:32;7.78;;;2.05;;
72464;SDS011;60471;52.150;4.508;2022-09-12T14:17:14;8.15;;;2.40;;
72464;SDS011;60471;52.150;4.508;2022-09-12T14:19:50;7.97;;;2.55;;
72464;SDS011;60471;52.150;4.508;2022-09-12T14:22:17;8.27;;;3.03;;
72464;SDS011;60471;52.150;4.508;2022-09-12T14:24:45;7.97;;;2.50;;
72464;SDS011;60471;52.150;4.508;2022-09-12T14:27:21;7.47;;;2.35;;
72464;SDS011;60471;52.150;4.508;2022-09-12T14:30:01;9.02;;;2.60;;
72464;SDS011;60471;52.150;4.508;2022-09-12T14:32:43;6.25;;;2.20;;
72464;SDS011;60471;52.150;4.508;2022-09-12T14:35:46;9.07;;;2.00;;
72464;SDS011;60471;52.150;4.508;2022-09-12T14:41:05;8.88;;;3.15;;
72464;SDS011;60471;52.150;4.508;2022-09-12T14:43:38;9.32;;;2.90;;
72464;SDS011;60471;52.150;4.508;2022-09-12T14:46:19;7.70;;;2.60;;
72464;SDS011;60471;52.150;4.508;2022-09-12T14:48:57;8.57;;;2.60;;
72464;SDS011;60471;52.150;4.508;2022-09-12T14:51:39;10.45;;;2.40;;
72464;SDS011;60471;52.150;4.508;2022-09-12T14:57:44;6.97;;;1.80;;
72464;SDS011;60471;52.150;4.508;2022-09-12T15:02:37;12.38;;;2.95;;
72464;SDS011;60471;52.150;4.508;2022-09-12T15:08:15;9.63;;;2.55;;
72464;SDS011;60471;52.150;4.508;2022-09-12T15:10:33;9.38;;;2.42;;
72464;SDS011;60471;52.150;4.508;2022-09-12T15:13:23;8.32;;;2.80;;
72464;SDS011;60471;52.150;4.508;2022-09-12T15:15:54;9.38;;;2.25;;
72464;SDS011;60471;52.150;4.508;2022-09-12T15:18:23;9.60;;;2.80;;
72464;SDS011;60471;52.150;4.508;2022-09-12T15:20:56;9.07;;;2.70;;
72464;SDS011;60471;52.150;4.508;2022-09-12T15:23:30;10.20;;;2.97;;
72464;SDS011;60471;52.150;4.508;2022-09-12T15:26:06;8.05;;;3.10;;
72464;SDS011;60471;52.150;4.508;2022-09-12T15:28:36;7.93;;;2.63;;
72464;SDS011;60471;52.150;4.508;2022-09-12T15:31:20;10.18;;;2.60;;
72464;SDS011;60471;52.150;4.508;2022-09-12T15:33:56;12.45;;;2.97;;
72464;SDS011;60471;52.150;4.508;2022-09-12T15:36:26;8.95;;;3.20;;
72464;SDS011;60471;52.150;4.508;2022-09-12T15:38:56;10.50;;;2.80;;
72464;SDS011;60471;52.150;4.508;2022-09-12T15:41:28;8.75;;;2.83;;
72464;SDS011;60471;52.150;4.508;2022-09-12T15:44:00;7.10;;;2.97;;
72464;SDS011;60471;52.150;4.508;2022-09-12T15:46:29;8.45;;;2.75;;
72464;SDS011;60471;52.150;4.508;2022-09-12T15:48:56;8.65;;;2.80;;
72464;SDS011;60471;52.150;4.508;2022-09-12T15:51:22;14.20;;;3.17;;
72464;SDS011;60471;52.150;4.508;2022-09-12T15:53:48;10.00;;;3.15;;
72464;SDS011;60471;52.150;4.508;2022-09-12T15:56:16;9.25;;;3.33;;
72464;SDS011;60471;52.150;4.508;2022-09-12T15:58:46;10.75;;;2.97;;
72464;SDS011;60471;52.150;4.508;2022-09-12T16:01:14;10.05;;;3.40;;
72464;SDS011;60471;52.150;4.508;2022-09-12T16:03:44;10.88;;;3.20;;
72464;SDS011;60471;52.150;4.508;2022-09-12T16:06:12;12.68;;;3.30;;
72464;SDS011;60471;52.150;4.508;2022-09-12T16:08:40;11.43;;;3.75;;
72464;SDS011;60471;52.150;4.508;2022-09-12T16:11:08;12.38;;;3.95;;
72464;SDS011;60471;52.150;4.508;2022-09-12T16:13:45;12.27;;;4.60;;
72464;SDS011;60471;52.150;4.508;2022-09-12T16:16:12;10.45;;;3.70;;
72464;SDS011;60471;52.150;4.508;2022-09-12T16:18:38;9.27;;;3.63;;
72464;SDS011;60471;52.150;4.508;2022-09-12T16:21:06;16.75;;;9.50;;
72464;SDS011;60471;52.150;4.508;2022-09-12T16:23:33;11.98;;;4.40;;
72464;SDS011;60471;52.150;4.508;2022-09-12T16:26:03;10.85;;;3.20;;
72464;SDS011;60471;52.150;4.508;2022-09-12T16:28:31;10.57;;;3.90;;
72464;SDS011;60471;52.150;4.508;2022-09-12T16:31:02;11.13;;;3.75;;
72464;SDS011;60471;52.150;4.508;2022-09-12T16:33:31;11.18;;;3.45;;
72464;SDS011;60471;52.150;4.508;2022-09-12T16:36:08;9.52;;;3.50;;
72464;SDS011;60471;52.150;4.508;2022-09-12T16:38:45;8.88;;;3.40;;
72464;SDS011;60471;52.150;4.508;2022-09-12T16:41:14;12.68;;;3.80;;
72464;SDS011;60471;52.150;4.508;2022-09-12T16:43:42;10.73;;;3.45;;
72464;SDS011;60471;52.150;4.508;2022-09-12T16:48:42;11.00;;;3.33;;
72464;SDS011;60471;52.150;4.508;2022-09-12T16:51:11;7.85;;;3.50;;
72464;SDS011;60471;52.150;4.508;2022-09-12T16:53:37;10.15;;;3.72;;
72464;SDS011;60471;52.150;4.508;2022-09-12T16:56:04;11.02;;;3.92;;
72464;SDS011;60471;52.150;4.508;2022-09-12T16:58:32;8.80;;;3.33;;
72464;SDS011;60471;52.150;4.508;2022-09-12T17:00:59;8.23;;;3.20;;
72464;SDS011;60471;52.150;4.508;2022-09-12T17:03:26;13.13;;;3.72;;
72464;SDS011;60471;52.150;4.508;2022-09-12T17:06:01;10.05;;;3.65;;
72464;SDS011;60471;52.150;4.508;2022-09-12T17:08:38;10.35;;;3.75;;
72464;SDS011;60471;52.150;4.508;2022-09-12T17:11:08;8.95;;;3.40;;
72464;SDS011;60471;52.150;4.508;2022-09-12T17:13:37;11.77;;;3.55;;
72464;SDS011;60471;52.150;4.508;2022-09-12T17:16:08;12.60;;;3.60;;
72464;SDS011;60471;52.150;4.508;2022-09-12T17:21:04;9.90;;;3.90;;
72464;SDS011;60471;52.150;4.508;2022-09-12T17:23:32;9.57;;;3.40;;
72464;SDS011;60471;52.150;4.508;2022-09-12T17:25:59;9.65;;;3.83;;
72464;SDS011;60471;52.150;4.508;2022-09-12T17:28:25;13.98;;;3.22;;
72464;SDS011;60471;52.150;4.508;2022-09-12T17:30:58;9.98;;;3.30;;
72464;SDS011;60471;52.150;4.508;2022-09-12T17:33:28;9.23;;;3.13;;
72464;SDS011;60471;52.150;4.508;2022-09-12T17:36:05;12.02;;;3.50;;
72464;SDS011;60471;52.150;4.508;2022-09-12T17:38:36;16.50;;;3.67;;
72464;SDS011;60471;52.150;4.508;2022-09-12T17:41:08;9.18;;;3.60;;
72464;SDS011;60471;52.150;4.508;2022-09-12T17:43:45;9.55;;;3.40;;
72464;SDS011;60471;52.150;4.508;2022-09-12T17:46:16;10.13;;;3.58;;
72464;SDS011;60471;52.150;4.508;2022-09-12T17:48:44;10.68;;;3.72;;
72464;SDS011;60471;52.150;4.508;2022-09-12T17:51:15;11.63;;;4.00;;
72464;SDS011;60471;52.150;4.508;2022-09-12T17:53:41;10.93;;;4.07;;
72464;SDS011;60471;52.150;4.508;2022-09-12T17:56:08;14.85;;;3.80;;
72464;SDS011;60471;52.150;4.508;2022-09-12T17:58:36;9.50;;;3.40;;
72464;SDS011;60471;52.150;4.508;2022-09-12T18:01:03;11.05;;;3.75;;
72464;SDS011;60471;52.150;4.508;2022-09-12T18:03:56;10.95;;;3.72;;
72464;SDS011;60471;52.150;4.508;2022-09-12T18:06:29;8.65;;;3.55;;
72464;SDS011;60471;52.150;4.508;2022-09-12T18:09:01;12.65;;;3.22;;
72464;SDS011;60471;52.150;4.508;2022-09-12T18:11:31;12.85;;;3.65;;
72464;SDS011;60471;52.150;4.508;2022-09-12T18:13:58;10.93;;;3.70;;
72464;SDS011;60471;52.150;4.508;2022-09-12T18:16:25;9.02;;;3.70;;